createdAt,value
2023-04-05T00:00:24.472Z,100987.33
2023-04-05T00:05:50.215Z,100987.45
2023-04-05T00:10:54.202Z,100986.98
2023-04-05T00:15:58.518Z,100986.79
2023-04-05T00:21:07.246Z,100979.05
2023-04-05T00:26:15.214Z,100975.00
2023-04-05T00:31:20.158Z,100972.22
2023-04-05T00:36:23.805Z,100961.72
2023-04-05T00:41:27.509Z,100956.31
2023-04-05T00:46:34.730Z,100950.79
2023-04-05T00:51:39.034Z,100950.06
2023-04-05T00:56:46.299Z,100943.92
2023-04-05T01:02:11.969Z,100946.55
2023-04-05T01:07:54.215Z,100938.61
2023-04-05T01:12:58.579Z,100934.12
2023-04-05T01:18:02.357Z,100938.19
2023-04-05T01:23:31.555Z,100933.70
2023-04-05T01:28:43.774Z,100932.11
2023-04-05T01:34:15.966Z,100932.91
2023-04-05T01:39:21.452Z,100929.92
2023-04-05T01:44:24.809Z,100934.79
2023-04-05T01:49:41.191Z,100939.35
2023-04-05T01:54:44.978Z,100937.97
2023-04-05T01:59:48.621Z,100935.56
2023-04-05T02:04:52.645Z,100937.10
2023-04-05T02:09:56.286Z,100943.85
2023-04-05T02:14:59.907Z,100940.56
2023-04-05T02:20:06.385Z,100948.40
2023-04-05T02:25:10.164Z,100944.33
2023-04-05T02:30:15.692Z,100945.87
2023-04-05T02:35:25.420Z,100941.38
2023-04-05T02:40:28.958Z,100937.36
2023-04-05T02:45:47.160Z,100938.52
2023-04-05T02:50:56.442Z,100942.18
2023-04-05T02:56:02.686Z,100941.79
2023-04-05T03:01:07.669Z,100939.58
2023-04-05T03:06:11.886Z,100941.89
2023-04-05T03:11:17.848Z,100941.08
2023-04-05T03:16:24.665Z,100938.05
2023-04-05T03:21:31.078Z,100937.78
2023-04-05T03:26:50.462Z,100942.27
2023-04-05T03:32:21.544Z,100943.77
2023-04-05T03:37:43.702Z,100941.69
2023-04-05T03:42:49.720Z,100941.73
2023-04-05T03:48:09.947Z,100942.69
2023-04-05T03:53:17.501Z,100938.17
2023-04-05T03:58:25.767Z,100939.55
2023-04-05T04:03:31.002Z,100938.08
2023-04-05T04:08:47.699Z,100936.45
2023-04-05T04:14:01.891Z,100939.73
2023-04-05T04:19:43.978Z,100941.77
2023-04-05T04:25:19.024Z,100947.52
2023-04-05T04:31:28.568Z,100952.63
2023-04-05T04:37:43.696Z,100952.41
2023-04-05T04:43:10.456Z,100948.33
2023-04-05T04:48:33.986Z,100954.21
2023-04-05T04:54:31.235Z,100947.23
2023-04-05T04:59:47.635Z,100943.39
2023-04-05T05:04:53.646Z,100948.39
2023-04-05T05:10:01.156Z,100948.41
2023-04-05T05:15:05.024Z,100949.59
2023-04-05T05:20:13.040Z,100950.73
2023-04-05T05:25:21.898Z,100960.20
2023-04-05T05:30:26.153Z,100959.66
2023-04-05T05:35:29.477Z,100958.55
2023-04-05T05:40:33.162Z,100964.63
2023-04-05T05:45:36.899Z,100960.95
2023-04-05T05:50:40.947Z,100965.71
2023-04-05T05:55:44.471Z,100970.19
2023-04-05T06:00:50.527Z,100970.70
2023-04-05T06:05:58.828Z,100968.83
2023-04-05T06:11:02.275Z,100972.80
2023-04-05T06:16:05.948Z,100976.66
2023-04-05T06:21:09.350Z,100977.48
2023-04-05T06:26:24.453Z,100979.63
2023-04-05T06:31:48.592Z,100984.56
2023-04-05T06:36:52.231Z,100985.76
2023-04-05T06:42:06.643Z,100988.74
2023-04-05T06:47:14.983Z,100994.83
2023-04-05T06:52:21.064Z,100995.63
2023-04-05T06:57:27.255Z,100995.94
2023-04-05T07:02:51.193Z,100997.52
2023-04-05T07:07:54.674Z,100996.84
2023-04-05T07:12:58.320Z,100996.02
2023-04-05T07:18:08.995Z,100997.60
2023-04-05T07:23:12.372Z,101001.80
2023-04-05T07:28:58.929Z,101004.72
2023-04-05T07:34:15.099Z,101002.95
2023-04-05T07:39:38.727Z,101007.60
2023-04-05T07:44:44.751Z,101015.26
2023-04-05T07:49:59.420Z,101010.76
2023-04-05T07:55:07.434Z,101009.76
2023-04-05T08:00:53.498Z,101005.05
2023-04-05T08:06:20.366Z,101009.27
2023-04-05T08:11:37.955Z,101012.33
2023-04-05T08:16:41.348Z,101015.69
2023-04-05T08:22:45.358Z,101014.19
2023-04-05T08:28:19.575Z,101015.07
2023-04-05T08:33:31.238Z,101010.83
2023-04-05T08:38:49.229Z,101013.52
2023-04-05T08:44:02.963Z,101010.61
2023-04-05T08:49:08.618Z,101008.77
2023-04-05T08:54:15.688Z,101005.36
2023-04-05T08:59:26.372Z,101006.82
2023-04-05T09:04:35.401Z,101009.05
2023-04-05T09:09:42.548Z,101007.82
2023-04-05T09:15:13.764Z,101004.58
2023-04-05T09:20:27.997Z,101009.45
2023-04-05T09:26:23.300Z,101010.46
2023-04-05T09:31:35.998Z,101006.86
2023-04-05T09:36:45.920Z,101008.77
2023-04-05T09:42:23.140Z,101014.10
2023-04-05T09:47:32.825Z,101012.80
2023-04-05T09:52:42.296Z,101012.89
2023-04-05T09:57:48.648Z,101011.81
2023-04-05T10:03:07.862Z,101010.86
2023-04-05T10:08:17.266Z,101008.11
2023-04-05T10:13:41.591Z,101012.38
2023-04-05T10:19:12.942Z,101012.25
2023-04-05T10:24:36.778Z,101008.05
2023-04-05T10:30:09.118Z,101009.64
2023-04-05T10:35:20.586Z,101014.50
2023-04-05T10:40:31.347Z,101011.16
2023-04-05T10:45:37.489Z,101013.96
2023-04-05T10:50:42.335Z,101012.42
2023-04-05T10:55:58.495Z,101001.85
2023-04-05T11:01:04.410Z,100996.88
2023-04-05T11:06:24.504Z,100995.71
2023-04-05T11:11:38.383Z,100990.48
2023-04-05T11:17:11.137Z,100984.64
2023-04-05T11:22:27.234Z,100981.45
2023-04-05T11:27:31.915Z,100981.21
2023-04-05T11:32:49.267Z,100977.60
2023-04-05T11:38:02.169Z,100981.33
2023-04-05T11:43:08.341Z,100980.77
2023-04-05T11:48:16.010Z,100978.65
2023-04-05T11:53:21.779Z,100981.14
2023-04-05T11:58:35.803Z,100981.44
2023-04-05T12:03:54.988Z,100978.98
2023-04-05T12:09:08.996Z,100980.17
2023-04-05T12:14:13.074Z,100979.99
2023-04-05T12:19:33.622Z,100973.84
2023-04-05T12:24:37.141Z,100966.55
2023-04-05T12:30:44.950Z,100966.95
2023-04-05T12:35:51.693Z,100963.04
2023-04-05T12:41:34.791Z,100958.52
2023-04-05T12:47:10.596Z,100961.40
2023-04-05T12:52:47.750Z,100959.86
2023-04-05T12:58:51.901Z,100958.31
2023-04-05T13:04:35.815Z,100953.36
2023-04-05T13:10:23.036Z,100959.01
2023-04-05T13:16:07.209Z,100958.11
2023-04-05T13:21:47.740Z,100955.51
2023-04-05T13:27:21.387Z,100952.21
2023-04-05T13:33:15.465Z,100949.13
2023-04-05T13:38:43.531Z,100954.17
2023-04-05T13:43:58.857Z,100954.05
2023-04-05T13:49:15.734Z,100956.68
2023-04-05T13:55:02.696Z,100953.02
2023-04-05T14:00:14.816Z,100953.92
2023-04-05T14:05:21.450Z,100950.84
2023-04-05T14:10:24.855Z,100955.83
2023-04-05T14:15:30.078Z,100954.96
2023-04-05T14:20:33.746Z,100953.92
2023-04-05T14:25:37.400Z,100954.77
2023-04-05T14:31:31.203Z,100959.40
2023-04-05T14:36:34.668Z,100955.02
2023-04-05T14:41:58.671Z,100952.88
2023-04-05T14:47:36.429Z,100953.14
2023-04-05T14:52:42.680Z,100952.29
2023-04-05T14:57:46.444Z,100952.30
2023-04-05T15:02:56.129Z,100956.47
2023-04-05T15:08:00.519Z,100959.60
2023-04-05T15:13:06.599Z,100962.91
2023-04-05T15:18:23.630Z,100964.98
2023-04-05T15:23:47.490Z,100966.19
2023-04-05T15:29:03.785Z,100970.15
2023-04-05T15:34:20.510Z,100970.50
2023-04-05T15:39:58.819Z,100977.04
2023-04-05T15:45:07.678Z,100981.66
2023-04-05T15:50:14.029Z,100986.31
2023-04-05T15:55:20.326Z,100987.30
2023-04-05T16:00:47.256Z,100985.00
2023-04-05T16:05:51.474Z,100987.55
2023-04-05T16:11:48.544Z,100981.48
2023-04-05T16:17:55.392Z,100980.03
2023-04-05T16:23:32.642Z,100982.20
2023-04-05T16:29:16.778Z,100980.25
2023-04-05T16:34:48.468Z,100982.10
2023-04-05T16:40:15.644Z,100980.66
2023-04-05T16:45:54.008Z,100981.00
2023-04-05T16:51:48.047Z,100983.60
2023-04-05T16:56:54.230Z,100987.70
2023-04-05T17:02:14.320Z,100989.91
2023-04-05T17:07:21.395Z,100987.96
2023-04-05T17:12:28.150Z,100991.73
2023-04-05T17:17:51.989Z,100997.73
2023-04-05T17:23:36.648Z,100999.90
2023-04-05T17:29:03.717Z,101002.76
2023-04-05T17:34:09.585Z,101002.48
2023-04-05T17:39:13.932Z,101006.75
2023-04-05T17:44:17.414Z,101011.52
2023-04-05T17:49:21.247Z,101022.48
2023-04-05T17:54:30.682Z,101030.20
2023-04-05T17:59:54.494Z,101035.84
2023-04-05T18:05:01.073Z,101040.59
2023-04-05T18:10:08.367Z,101040.73
2023-04-05T18:15:18.598Z,101042.09
2023-04-05T18:20:31.737Z,101040.73
2023-04-05T18:26:31.896Z,101045.66
2023-04-05T18:32:21.840Z,101052.70
2023-04-05T18:37:27.748Z,101059.17
2023-04-05T18:42:35.670Z,101056.36
2023-04-05T18:48:01.322Z,101063.39
2023-04-05T18:53:09.505Z,101070.81
2023-04-05T18:58:13.318Z,101073.21
2023-04-05T19:03:44.806Z,101072.81
2023-04-05T19:09:08.963Z,101073.31
2023-04-05T19:14:35.989Z,101074.85
2023-04-05T19:19:53.773Z,101078.95
2023-04-05T19:24:57.203Z,101081.70
2023-04-05T19:30:07.175Z,101081.84
2023-04-05T19:35:11.007Z,101083.20
2023-04-05T19:40:27.531Z,101085.23
2023-04-05T19:46:00.303Z,101087.58
2023-04-05T19:51:36.481Z,101083.07
2023-04-05T19:56:43.188Z,101090.10
2023-04-05T20:02:15.867Z,101089.21
2023-04-05T20:07:19.517Z,101083.64
2023-04-05T20:12:26.224Z,101082.46
2023-04-05T20:17:29.779Z,101076.76
2023-04-05T20:22:40.690Z,101068.11
2023-04-05T20:27:51.275Z,101069.81
2023-04-05T20:33:47.548Z,101065.66
2023-04-05T20:39:07.642Z,101065.66
2023-04-05T20:45:22.282Z,101061.70
2023-04-05T20:50:56.077Z,101055.94
2023-04-05T20:56:40.095Z,101055.43
2023-04-05T21:01:47.277Z,101058.05
2023-04-05T21:07:14.509Z,101054.05
2023-04-05T21:12:54.015Z,101051.56
2023-04-05T21:18:16.017Z,101049.02
2023-04-05T21:23:22.603Z,101057.27
2023-04-05T21:28:28.868Z,101054.30
2023-04-05T21:33:41.636Z,101055.48
2023-04-05T21:39:11.773Z,101052.55
2023-04-05T21:44:28.293Z,101049.25
2023-04-05T21:49:31.601Z,101045.44
2023-04-05T21:54:35.519Z,101043.58
2023-04-05T21:59:42.430Z,101040.48
2023-04-05T22:04:46.177Z,101037.77
2023-04-05T22:09:49.670Z,101036.05
2023-04-05T22:14:58.014Z,101030.16
2023-04-05T22:20:05.166Z,101029.96
2023-04-05T22:25:09.886Z,101029.29
2023-04-05T22:30:20.521Z,101026.71
2023-04-05T22:35:35.902Z,101027.50
2023-04-05T22:40:44.940Z,101024.17
2023-04-05T22:45:54.183Z,101016.59
2023-04-05T22:51:00.988Z,101018.67
2023-04-05T22:56:07.404Z,101012.64
2023-04-05T23:01:13.521Z,101010.73
2023-04-05T23:06:17.097Z,101007.59
2023-04-05T23:11:22.723Z,101010.83
2023-04-05T23:16:26.206Z,101005.48
2023-04-05T23:21:29.597Z,101004.29
2023-04-05T23:26:34.499Z,101005.66
2023-04-05T23:31:37.974Z,100997.75
2023-04-05T23:36:44.879Z,101000.85
2023-04-05T23:42:08.894Z,100998.29
2023-04-05T23:47:15.026Z,100991.17
2023-04-05T23:52:50.060Z,100990.98
2023-04-05T23:58:15.970Z,100989.05
